sensor_id;sensor_type;location;lat;lon;timestamp;temperature;humidity
19966;DHT22;10144;50.874;4.762;2023-04-05T00:02:22;5.10;99.90
19966;DHT22;10144;50.874;4.762;2023-04-05T00:08:14;5.00;99.90
19966;DHT22;10144;50.874;4.762;2023-04-05T00:10:53;5.00;99.90
19966;DHT22;10144;50.874;4.762;2023-04-05T00:16:41;4.80;99.90
19966;DHT22;10144;50.874;4.762;2023-04-05T00:22:29;4.70;99.90
19966;DHT22;10144;50.874;4.762;2023-04-05T00:28:18;4.60;99.90
19966;DHT22;10144;50.874;4.762;2023-04-05T00:34:06;4.10;99.90
19966;DHT22;10144;50.874;4.762;2023-04-05T00:37:10;4.00;99.90
19966;DHT22;10144;50.874;4.762;2023-04-05T00:42:58;3.70;99.90
19966;DHT22;10144;50.874;4.762;2023-04-05T00:48:46;3.40;99.90
19966;DHT22;10144;50.874;4.762;2023-04-05T01:01:20;3.00;99.90
19966;DHT22;10144;50.874;4.762;2023-04-05T01:04:04;3.00;99.90
19966;DHT22;10144;50.874;4.762;2023-04-05T01:13:09;2.70;99.90
19966;DHT22;10144;50.874;4.762;2023-04-05T01:16:10;2.70;99.90
19966;DHT22;10144;50.874;4.762;2023-04-05T01:19:03;2.60;99.90
19966;DHT22;10144;50.874;4.762;2023-04-05T01:21:41;2.60;99.90
19966;DHT22;10144;50.874;4.762;2023-04-05T01:30:20;2.50;99.90
19966;DHT22;10144;50.874;4.762;2023-04-05T01:33:03;2.40;99.90
19966;DHT22;10144;50.874;4.762;2023-04-05T01:35:56;2.50;99.90
19966;DHT22;10144;50.874;4.762;2023-04-05T01:41:45;2.40;99.90
19966;DHT22;10144;50.874;4.762;2023-04-05T01:44:22;2.40;99.90
19966;DHT22;10144;50.874;4.762;2023-04-05T01:50:19;2.30;99.90
19966;DHT22;10144;50.874;4.762;2023-04-05T01:56:07;2.20;99.90
19966;DHT22;10144;50.874;4.762;2023-04-05T02:01:55;2.10;99.90
19966;DHT22;10144;50.874;4.762;2023-04-05T02:07:43;2.10;99.90
19966;DHT22;10144;50.874;4.762;2023-04-05T02:13:30;2.00;99.90
19966;DHT22;10144;50.874;4.762;2023-04-05T02:19:20;1.90;99.90
19966;DHT22;10144;50.874;4.762;2023-04-05T02:25:08;2.00;99.90
19966;DHT22;10144;50.874;4.762;2023-04-05T02:27:44;2.10;99.90
19966;DHT22;10144;50.874;4.762;2023-04-05T02:33:32;1.90;99.90
19966;DHT22;10144;50.874;4.762;2023-04-05T02:36:04;1.90;99.90
19966;DHT22;10144;50.874;4.762;2023-04-05T02:41:53;1.80;99.90
19966;DHT22;10144;50.874;4.762;2023-04-05T02:44:33;1.80;99.90
19966;DHT22;10144;50.874;4.762;2023-04-05T02:47:16;1.80;99.90
19966;DHT22;10144;50.874;4.762;2023-04-05T02:53:07;1.90;99.90
19966;DHT22;10144;50.874;4.762;2023-04-05T02:55:36;2.00;99.90
19966;DHT22;10144;50.874;4.762;2023-04-05T02:58:25;2.20;99.90
19966;DHT22;10144;50.874;4.762;2023-04-05T03:07:42;2.50;99.90
19966;DHT22;10144;50.874;4.762;2023-04-05T03:10:13;2.40;99.90
19966;DHT22;10144;50.874;4.762;2023-04-05T03:12:59;2.40;99.90
19966;DHT22;10144;50.874;4.762;2023-04-05T03:15:31;2.40;99.90
19966;DHT22;10144;50.874;4.762;2023-04-05T03:18:13;2.30;99.90
19966;DHT22;10144;50.874;4.762;2023-04-05T03:24:01;2.40;99.90
19966;DHT22;10144;50.874;4.762;2023-04-05T03:39:43;2.40;99.90
19966;DHT22;10144;50.874;4.762;2023-04-05T03:42:35;2.40;99.90
19966;DHT22;10144;50.874;4.762;2023-04-05T03:51:41;2.40;99.90
19966;DHT22;10144;50.874;4.762;2023-04-05T03:57:29;2.40;99.90
19966;DHT22;10144;50.874;4.762;2023-04-05T04:00:04;2.40;99.90
19966;DHT22;10144;50.874;4.762;2023-04-05T04:03:06;2.40;99.90
19966;DHT22;10144;50.874;4.762;2023-04-05T04:15:24;2.40;99.90
19966;DHT22;10144;50.874;4.762;2023-04-05T04:18:02;2.30;99.90
19966;DHT22;10144;50.874;4.762;2023-04-05T04:23:53;2.10;99.90
19966;DHT22;10144;50.874;4.762;2023-04-05T04:29:42;2.40;99.90
19966;DHT22;10144;50.874;4.762;2023-04-05T04:35:35;2.60;99.90
19966;DHT22;10144;50.874;4.762;2023-04-05T04:41:26;2.10;99.90
19966;DHT22;10144;50.874;4.762;2023-04-05T04:47:14;1.80;99.90
19966;DHT22;10144;50.874;4.762;2023-04-05T04:53:03;1.50;99.90
19966;DHT22;10144;50.874;4.762;2023-04-05T04:58:55;1.50;99.90
19966;DHT22;10144;50.874;4.762;2023-04-05T05:04:43;1.40;99.90
19966;DHT22;10144;50.874;4.762;2023-04-05T05:07:23;1.50;99.90
19966;DHT22;10144;50.874;4.762;2023-04-05T05:10:04;1.70;99.90
19966;DHT22;10144;50.874;4.762;2023-04-05T05:19:15;2.10;99.90
19966;DHT22;10144;50.874;4.762;2023-04-05T05:21:48;2.10;99.90
19966;DHT22;10144;50.874;4.762;2023-04-05T05:27:36;2.40;99.90
19966;DHT22;10144;50.874;4.762;2023-04-05T05:33:24;2.30;99.90
19966;DHT22;10144;50.874;4.762;2023-04-05T05:39:13;2.50;99.90
19966;DHT22;10144;50.874;4.762;2023-04-05T05:45:03;2.80;99.90
19966;DHT22;10144;50.874;4.762;2023-04-05T05:50:51;2.90;99.90
19966;DHT22;10144;50.874;4.762;2023-04-05T05:53:18;3.00;99.90
19966;DHT22;10144;50.874;4.762;2023-04-05T05:55:44;3.10;99.90
19966;DHT22;10144;50.874;4.762;2023-04-05T05:58:21;3.40;99.90
19966;DHT22;10144;50.874;4.762;2023-04-05T06:00:50;3.50;99.90
19966;DHT22;10144;50.874;4.762;2023-04-05T06:03:24;3.80;99.90
19966;DHT22;10144;50.874;4.762;2023-04-05T06:05:55;4.00;99.90
19966;DHT22;10144;50.874;4.762;2023-04-05T06:08:25;4.20;99.90
19966;DHT22;10144;50.874;4.762;2023-04-05T06:10:57;4.70;99.90
19966;DHT22;10144;50.874;4.762;2023-04-05T06:13:35;6.00;99.90
19966;DHT22;10144;50.874;4.762;2023-04-05T06:16:02;7.30;99.90
19966;DHT22;10144;50.874;4.762;2023-04-05T06:18:32;8.50;99.90
19966;DHT22;10144;50.874;4.762;2023-04-05T06:21:01;9.50;99.90
19966;DHT22;10144;50.874;4.762;2023-04-05T06:23:30;10.70;99.90
19966;DHT22;10144;50.874;4.762;2023-04-05T06:25:59;11.70;99.90
19966;DHT22;10144;50.874;4.762;2023-04-05T06:28:28;12.50;99.90
19966;DHT22;10144;50.874;4.762;2023-04-05T06:31:11;12.90;99.90
19966;DHT22;10144;50.874;4.762;2023-04-05T06:33:39;13.40;99.90
19966;DHT22;10144;50.874;4.762;2023-04-05T06:36:05;14.10;99.90
19966;DHT22;10144;50.874;4.762;2023-04-05T06:38:33;14.60;99.90
19966;DHT22;10144;50.874;4.762;2023-04-05T06:41:00;15.30;99.90
19966;DHT22;10144;50.874;4.762;2023-04-05T06:46:48;16.00;99.90
19966;DHT22;10144;50.874;4.762;2023-04-05T06:52:39;16.90;99.90
19966;DHT22;10144;50.874;4.762;2023-04-05T06:55:08;18.00;99.50
19966;DHT22;10144;50.874;4.762;2023-04-05T07:00:56;18.90;95.60
19966;DHT22;10144;50.874;4.762;2023-04-05T07:03:25;19.10;94.00
19966;DHT22;10144;50.874;4.762;2023-04-05T07:05:58;19.60;93.70
19966;DHT22;10144;50.874;4.762;2023-04-05T07:08:27;20.90;92.00
19966;DHT22;10144;50.874;4.762;2023-04-05T07:10:56;22.00;89.00
19966;DHT22;10144;50.874;4.762;2023-04-05T07:13:28;23.30;83.40
19966;DHT22;10144;50.874;4.762;2023-04-05T07:16:01;24.40;77.30
19966;DHT22;10144;50.874;4.762;2023-04-05T07:24:56;25.70;64.00
19966;DHT22;10144;50.874;4.762;2023-04-05T07:27:31;25.30;62.20
19966;DHT22;10144;50.874;4.762;2023-04-05T07:30:00;25.80;62.60
19966;DHT22;10144;50.874;4.762;2023-04-05T07:32:29;26.80;60.30
19966;DHT22;10144;50.874;4.762;2023-04-05T07:34:57;27.50;58.50
19966;DHT22;10144;50.874;4.762;2023-04-05T07:37:36;27.70;55.70
19966;DHT22;10144;50.874;4.762;2023-04-05T07:40:04;27.60;55.40
19966;DHT22;10144;50.874;4.762;2023-04-05T07:42:33;28.20;55.80
19966;DHT22;10144;50.874;4.762;2023-04-05T07:45:04;29.10;55.10
19966;DHT22;10144;50.874;4.762;2023-04-05T07:47:32;29.80;54.50
19966;DHT22;10144;50.874;4.762;2023-04-05T07:50:20;30.10;52.70
19966;DHT22;10144;50.874;4.762;2023-04-05T07:52:46;30.80;53.10
19966;DHT22;10144;50.874;4.762;2023-04-05T07:55:13;30.30;52.50
19966;DHT22;10144;50.874;4.762;2023-04-05T07:57:39;29.80;52.80
19966;DHT22;10144;50.874;4.762;2023-04-05T08:00:07;29.80;52.80
19966;DHT22;10144;50.874;4.762;2023-04-05T08:02:39;29.30;51.20
19966;DHT22;10144;50.874;4.762;2023-04-05T08:05:07;30.00;49.40
19966;DHT22;10144;50.874;4.762;2023-04-05T08:07:34;30.70;50.70
19966;DHT22;10144;50.874;4.762;2023-04-05T08:10:00;31.00;51.00
19966;DHT22;10144;50.874;4.762;2023-04-05T08:12:40;31.40;49.00
19966;DHT22;10144;50.874;4.762;2023-04-05T08:15:05;31.70;48.90
19966;DHT22;10144;50.874;4.762;2023-04-05T08:17:32;32.10;48.10
19966;DHT22;10144;50.874;4.762;2023-04-05T08:19:58;32.90;47.50
19966;DHT22;10144;50.874;4.762;2023-04-05T08:22:27;33.30;46.30
19966;DHT22;10144;50.874;4.762;2023-04-05T08:24:59;33.50;45.40
19966;DHT22;10144;50.874;4.762;2023-04-05T08:27:26;34.10;45.70
19966;DHT22;10144;50.874;4.762;2023-04-05T08:29:52;34.50;44.80
19966;DHT22;10144;50.874;4.762;2023-04-05T08:32:20;34.40;44.20
19966;DHT22;10144;50.874;4.762;2023-04-05T08:34:54;34.50;43.00
19966;DHT22;10144;50.874;4.762;2023-04-05T08:37:19;34.50;42.90
19966;DHT22;10144;50.874;4.762;2023-04-05T08:39:51;34.30;42.70
19966;DHT22;10144;50.874;4.762;2023-04-05T08:42:21;33.40;44.10
19966;DHT22;10144;50.874;4.762;2023-04-05T08:44:51;32.70;43.20
19966;DHT22;10144;50.874;4.762;2023-04-05T08:47:22;32.60;42.40
19966;DHT22;10144;50.874;4.762;2023-04-05T08:49:48;33.40;41.70
19966;DHT22;10144;50.874;4.762;2023-04-05T08:52:15;33.10;40.60
19966;DHT22;10144;50.874;4.762;2023-04-05T08:54:42;31.40;40.60
19966;DHT22;10144;50.874;4.762;2023-04-05T08:57:08;31.30;41.00
19966;DHT22;10144;50.874;4.762;2023-04-05T08:59:40;31.50;41.50
19966;DHT22;10144;50.874;4.762;2023-04-05T09:02:14;32.00;42.30
19966;DHT22;10144;50.874;4.762;2023-04-05T09:05:01;32.20;41.60
19966;DHT22;10144;50.874;4.762;2023-04-05T09:07:28;32.80;40.90
19966;DHT22;10144;50.874;4.762;2023-04-05T09:09:58;32.60;41.80
19966;DHT22;10144;50.874;4.762;2023-04-05T09:12:40;33.50;40.60
19966;DHT22;10144;50.874;4.762;2023-04-05T09:15:08;33.20;39.60
19966;DHT22;10144;50.874;4.762;2023-04-05T09:18:09;33.10;39.90
19966;DHT22;10144;50.874;4.762;2023-04-05T09:20:38;34.40;40.90
19966;DHT22;10144;50.874;4.762;2023-04-05T09:23:36;34.50;39.60
19966;DHT22;10144;50.874;4.762;2023-04-05T09:26:20;33.30;39.70
19966;DHT22;10144;50.874;4.762;2023-04-05T09:29:03;32.50;39.90
19966;DHT22;10144;50.874;4.762;2023-04-05T09:31:46;30.40;42.40
19966;DHT22;10144;50.874;4.762;2023-04-05T09:34:19;29.90;40.80
19966;DHT22;10144;50.874;4.762;2023-04-05T09:36:49;29.90;41.10
19966;DHT22;10144;50.874;4.762;2023-04-05T09:39:35;31.40;41.40
19966;DHT22;10144;50.874;4.762;2023-04-05T09:42:13;33.20;40.40
19966;DHT22;10144;50.874;4.762;2023-04-05T09:47:22;30.70;41.50
19966;DHT22;10144;50.874;4.762;2023-04-05T09:49:51;29.70;42.30
19966;DHT22;10144;50.874;4.762;2023-04-05T09:52:22;29.90;42.00
19966;DHT22;10144;50.874;4.762;2023-04-05T09:54:49;27.80;42.60
19966;DHT22;10144;50.874;4.762;2023-04-05T09:57:16;27.50;42.60
19966;DHT22;10144;50.874;4.762;2023-04-05T09:59:45;27.30;43.70
19966;DHT22;10144;50.874;4.762;2023-04-05T10:02:16;27.90;43.70
19966;DHT22;10144;50.874;4.762;2023-04-05T10:08:29;26.90;43.60
19966;DHT22;10144;50.874;4.762;2023-04-05T10:14:17;26.40;46.10
19966;DHT22;10144;50.874;4.762;2023-04-05T10:17:11;26.60;44.60
19966;DHT22;10144;50.874;4.762;2023-04-05T10:19:48;27.40;43.10
19966;DHT22;10144;50.874;4.762;2023-04-05T10:22:39;26.90;43.30
19966;DHT22;10144;50.874;4.762;2023-04-05T10:25:19;26.20;44.00
19966;DHT22;10144;50.874;4.762;2023-04-05T10:27:54;26.70;43.30
19966;DHT22;10144;50.874;4.762;2023-04-05T10:30:24;28.40;43.10
19966;DHT22;10144;50.874;4.762;2023-04-05T10:39:46;25.60;43.90
19966;DHT22;10144;50.874;4.762;2023-04-05T10:42:36;25.20;46.20
19966;DHT22;10144;50.874;4.762;2023-04-05T10:45:12;24.70;46.60
19966;DHT22;10144;50.874;4.762;2023-04-05T10:50:46;25.80;44.80
19966;DHT22;10144;50.874;4.762;2023-04-05T10:53:16;27.30;42.50
19966;DHT22;10144;50.874;4.762;2023-04-05T10:55:45;27.00;42.90
19966;DHT22;10144;50.874;4.762;2023-04-05T10:58:17;26.90;43.60
19966;DHT22;10144;50.874;4.762;2023-04-05T11:00:46;27.70;44.00
19966;DHT22;10144;50.874;4.762;2023-04-05T11:09:13;27.30;42.30
19966;DHT22;10144;50.874;4.762;2023-04-05T11:11:42;27.40;43.10
19966;DHT22;10144;50.874;4.762;2023-04-05T11:14:20;27.70;42.40
19966;DHT22;10144;50.874;4.762;2023-04-05T11:17:03;27.40;42.00
19966;DHT22;10144;50.874;4.762;2023-04-05T11:20:02;27.20;42.40
19966;DHT22;10144;50.874;4.762;2023-04-05T11:22:53;28.30;41.40
19966;DHT22;10144;50.874;4.762;2023-04-05T11:25:23;26.50;44.40
19966;DHT22;10144;50.874;4.762;2023-04-05T11:28:02;25.40;43.60
19966;DHT22;10144;50.874;4.762;2023-04-05T11:30:54;24.30;44.20
19966;DHT22;10144;50.874;4.762;2023-04-05T11:36:07;24.40;43.10
19966;DHT22;10144;50.874;4.762;2023-04-05T11:38:36;26.00;42.30
19966;DHT22;10144;50.874;4.762;2023-04-05T11:41:13;26.10;42.40
19966;DHT22;10144;50.874;4.762;2023-04-05T11:44:05;27.20;42.50
19966;DHT22;10144;50.874;4.762;2023-04-05T11:46:39;27.50;41.60
19966;DHT22;10144;50.874;4.762;2023-04-05T11:49:06;25.80;42.40
19966;DHT22;10144;50.874;4.762;2023-04-05T11:51:34;25.60;44.80
19966;DHT22;10144;50.874;4.762;2023-04-05T11:54:00;25.70;45.00
19966;DHT22;10144;50.874;4.762;2023-04-05T11:56:26;21.90;46.40
19966;DHT22;10144;50.874;4.762;2023-04-05T11:58:57;21.70;47.80
19966;DHT22;10144;50.874;4.762;2023-04-05T12:01:28;23.00;47.90
19966;DHT22;10144;50.874;4.762;2023-04-05T12:03:56;24.10;46.60
19966;DHT22;10144;50.874;4.762;2023-04-05T12:06:25;23.40;47.40
19966;DHT22;10144;50.874;4.762;2023-04-05T12:08:51;24.20;46.20
19966;DHT22;10144;50.874;4.762;2023-04-05T12:18:02;24.70;46.70
19966;DHT22;10144;50.874;4.762;2023-04-05T12:23:51;25.60;47.10
19966;DHT22;10144;50.874;4.762;2023-04-05T12:29:39;25.20;45.90
19966;DHT22;10144;50.874;4.762;2023-04-05T12:35:28;24.10;45.10
19966;DHT22;10144;50.874;4.762;2023-04-05T12:41:29;22.10;50.90
19966;DHT22;10144;50.874;4.762;2023-04-05T12:47:17;19.50;53.30
19966;DHT22;10144;50.874;4.762;2023-04-05T12:53:05;18.90;55.40
19966;DHT22;10144;50.874;4.762;2023-04-05T13:04:43;19.60;53.90
19966;DHT22;10144;50.874;4.762;2023-04-05T13:10:31;20.00;53.80
19966;DHT22;10144;50.874;4.762;2023-04-05T13:16:19;18.40;56.10
19966;DHT22;10144;50.874;4.762;2023-04-05T13:22:07;18.40;55.60
19966;DHT22;10144;50.874;4.762;2023-04-05T13:27:54;17.50;57.30
19966;DHT22;10144;50.874;4.762;2023-04-05T13:33:42;15.10;64.80
19966;DHT22;10144;50.874;4.762;2023-04-05T13:39:30;14.70;65.80
19966;DHT22;10144;50.874;4.762;2023-04-05T13:45:18;14.20;63.50
19966;DHT22;10144;50.874;4.762;2023-04-05T13:51:05;13.70;66.10
19966;DHT22;10144;50.874;4.762;2023-04-05T13:53:37;13.50;67.70
19966;DHT22;10144;50.874;4.762;2023-04-05T13:56:03;13.70;70.70
19966;DHT22;10144;50.874;4.762;2023-04-05T13:58:28;14.00;69.10
19966;DHT22;10144;50.874;4.762;2023-04-05T14:00:54;14.20;68.70
19966;DHT22;10144;50.874;4.762;2023-04-05T14:03:20;14.20;68.50
19966;DHT22;10144;50.874;4.762;2023-04-05T14:05:45;13.90;68.00
19966;DHT22;10144;50.874;4.762;2023-04-05T14:08:11;13.40;67.80
19966;DHT22;10144;50.874;4.762;2023-04-05T14:10:36;13.50;71.80
19966;DHT22;10144;50.874;4.762;2023-04-05T14:13:02;13.30;68.50
19966;DHT22;10144;50.874;4.762;2023-04-05T14:15:28;13.50;69.00
19966;DHT22;10144;50.874;4.762;2023-04-05T14:17:54;13.70;69.50
19966;DHT22;10144;50.874;4.762;2023-04-05T14:20:20;13.40;69.00
19966;DHT22;10144;50.874;4.762;2023-04-05T14:22:50;13.10;67.70
19966;DHT22;10144;50.874;4.762;2023-04-05T14:25:29;13.20;67.80
19966;DHT22;10144;50.874;4.762;2023-04-05T14:28:04;13.70;67.80
19966;DHT22;10144;50.874;4.762;2023-04-05T14:30:41;14.10;67.20
19966;DHT22;10144;50.874;4.762;2023-04-05T14:33:13;14.40;66.10
19966;DHT22;10144;50.874;4.762;2023-04-05T14:35:52;14.50;67.40
19966;DHT22;10144;50.874;4.762;2023-04-05T14:38:31;14.40;67.70
19966;DHT22;10144;50.874;4.762;2023-04-05T14:44:16;14.40;66.70
19966;DHT22;10144;50.874;4.762;2023-04-05T14:46:42;14.30;65.90
19966;DHT22;10144;50.874;4.762;2023-04-05T14:49:08;14.50;68.90
19966;DHT22;10144;50.874;4.762;2023-04-05T14:51:35;14.50;69.80
19966;DHT22;10144;50.874;4.762;2023-04-05T14:54:01;14.60;66.80
19966;DHT22;10144;50.874;4.762;2023-04-05T14:56:27;14.70;66.30
19966;DHT22;10144;50.874;4.762;2023-04-05T14:58:54;14.70;64.40
19966;DHT22;10144;50.874;4.762;2023-04-05T15:01:20;14.80;64.50
19966;DHT22;10144;50.874;4.762;2023-04-05T15:03:51;14.60;62.20
19966;DHT22;10144;50.874;4.762;2023-04-05T15:06:18;14.30;63.80
19966;DHT22;10144;50.874;4.762;2023-04-05T15:08:44;14.20;67.80
19966;DHT22;10144;50.874;4.762;2023-04-05T15:11:11;14.00;68.00
19966;DHT22;10144;50.874;4.762;2023-04-05T15:13:36;13.90;67.80
19966;DHT22;10144;50.874;4.762;2023-04-05T15:16:05;14.00;68.30
19966;DHT22;10144;50.874;4.762;2023-04-05T15:18:30;14.30;68.90
19966;DHT22;10144;50.874;4.762;2023-04-05T15:20:58;14.30;64.80
19966;DHT22;10144;50.874;4.762;2023-04-05T15:23:31;14.30;64.30
19966;DHT22;10144;50.874;4.762;2023-04-05T15:26:03;14.40;63.80
19966;DHT22;10144;50.874;4.762;2023-04-05T15:28:38;14.60;64.30
19966;DHT22;10144;50.874;4.762;2023-04-05T15:31:20;14.60;63.00
19966;DHT22;10144;50.874;4.762;2023-04-05T15:33:53;14.10;63.30
19966;DHT22;10144;50.874;4.762;2023-04-05T15:36:42;14.20;63.00
19966;DHT22;10144;50.874;4.762;2023-04-05T15:42:10;14.20;62.70
19966;DHT22;10144;50.874;4.762;2023-04-05T15:44:51;14.10;64.70
19966;DHT22;10144;50.874;4.762;2023-04-05T15:47:17;14.20;64.80
19966;DHT22;10144;50.874;4.762;2023-04-05T15:50:01;14.00;65.60
19966;DHT22;10144;50.874;4.762;2023-04-05T15:52:53;13.90;63.70
19966;DHT22;10144;50.874;4.762;2023-04-05T15:58:43;13.50;64.50
19966;DHT22;10144;50.874;4.762;2023-04-05T16:01:26;13.30;64.20
19966;DHT22;10144;50.874;4.762;2023-04-05T16:06:59;13.10;64.20
19966;DHT22;10144;50.874;4.762;2023-04-05T16:09:47;13.10;64.30
19966;DHT22;10144;50.874;4.762;2023-04-05T16:12:13;13.20;65.20
19966;DHT22;10144;50.874;4.762;2023-04-05T16:15:12;13.20;67.10
19966;DHT22;10144;50.874;4.762;2023-04-05T16:17:58;13.30;66.20
19966;DHT22;10144;50.874;4.762;2023-04-05T16:23:46;13.20;71.30
19966;DHT22;10144;50.874;4.762;2023-04-05T16:29:34;13.10;69.60
19966;DHT22;10144;50.874;4.762;2023-04-05T16:35:22;12.80;69.10
19966;DHT22;10144;50.874;4.762;2023-04-05T16:41:10;12.70;72.70
19966;DHT22;10144;50.874;4.762;2023-04-05T16:46:58;12.30;73.20
19966;DHT22;10144;50.874;4.762;2023-04-05T16:59:30;12.30;74.80
19966;DHT22;10144;50.874;4.762;2023-04-05T17:01:55;12.30;75.40
19966;DHT22;10144;50.874;4.762;2023-04-05T17:04:21;12.10;75.10
19966;DHT22;10144;50.874;4.762;2023-04-05T17:06:47;12.00;75.10
19966;DHT22;10144;50.874;4.762;2023-04-05T17:09:14;12.00;75.40
19966;DHT22;10144;50.874;4.762;2023-04-05T17:11:40;12.10;74.80
19966;DHT22;10144;50.874;4.762;2023-04-05T17:14:06;12.20;76.20
19966;DHT22;10144;50.874;4.762;2023-04-05T17:16:32;12.20;75.00
19966;DHT22;10144;50.874;4.762;2023-04-05T17:18:58;12.20;74.70
19966;DHT22;10144;50.874;4.762;2023-04-05T17:21:25;12.20;76.50
19966;DHT22;10144;50.874;4.762;2023-04-05T17:23:52;12.20;77.20
19966;DHT22;10144;50.874;4.762;2023-04-05T17:26:17;12.30;75.00
19966;DHT22;10144;50.874;4.762;2023-04-05T17:28:43;12.10;75.40
19966;DHT22;10144;50.874;4.762;2023-04-05T17:31:10;12.10;75.70
19966;DHT22;10144;50.874;4.762;2023-04-05T17:33:38;12.10;76.30
19966;DHT22;10144;50.874;4.762;2023-04-05T17:36:04;12.10;75.90
19966;DHT22;10144;50.874;4.762;2023-04-05T17:38:30;11.90;72.40
19966;DHT22;10144;50.874;4.762;2023-04-05T17:40:56;11.90;72.30
19966;DHT22;10144;50.874;4.762;2023-04-05T17:43:23;11.80;71.70
19966;DHT22;10144;50.874;4.762;2023-04-05T17:45:50;11.80;72.60
19966;DHT22;10144;50.874;4.762;2023-04-05T17:48:16;11.80;73.10
19966;DHT22;10144;50.874;4.762;2023-04-05T17:50:43;11.70;73.30
19966;DHT22;10144;50.874;4.762;2023-04-05T17:53:12;11.60;73.40
19966;DHT22;10144;50.874;4.762;2023-04-05T17:55:38;11.50;74.10
19966;DHT22;10144;50.874;4.762;2023-04-05T17:58:05;11.40;75.60
19966;DHT22;10144;50.874;4.762;2023-04-05T18:00:31;11.30;77.80
19966;DHT22;10144;50.874;4.762;2023-04-05T18:02:57;11.20;79.90
19966;DHT22;10144;50.874;4.762;2023-04-05T18:05:24;11.10;80.90
19966;DHT22;10144;50.874;4.762;2023-04-05T18:07:52;10.80;87.70
19966;DHT22;10144;50.874;4.762;2023-04-05T18:10:19;10.40;86.50
19966;DHT22;10144;50.874;4.762;2023-04-05T18:12:46;10.20;85.50
19966;DHT22;10144;50.874;4.762;2023-04-05T18:15:12;10.30;81.80
19966;DHT22;10144;50.874;4.762;2023-04-05T18:17:38;10.40;83.30
19966;DHT22;10144;50.874;4.762;2023-04-05T18:20:05;10.30;87.60
19966;DHT22;10144;50.874;4.762;2023-04-05T18:22:32;10.20;91.80
19966;DHT22;10144;50.874;4.762;2023-04-05T18:24:59;10.00;92.90
19966;DHT22;10144;50.874;4.762;2023-04-05T18:27:25;10.10;93.60
19966;DHT22;10144;50.874;4.762;2023-04-05T18:29:50;10.00;94.00
19966;DHT22;10144;50.874;4.762;2023-04-05T18:32:19;10.00;94.70
19966;DHT22;10144;50.874;4.762;2023-04-05T18:34:48;9.90;95.50
19966;DHT22;10144;50.874;4.762;2023-04-05T18:37:17;9.70;96.60
19966;DHT22;10144;50.874;4.762;2023-04-05T18:39:45;9.60;97.70
19966;DHT22;10144;50.874;4.762;2023-04-05T18:42:12;9.70;97.90
19966;DHT22;10144;50.874;4.762;2023-04-05T18:44:44;9.60;98.90
19966;DHT22;10144;50.874;4.762;2023-04-05T18:47:10;9.70;99.00
19966;DHT22;10144;50.874;4.762;2023-04-05T18:49:35;9.60;99.70
19966;DHT22;10144;50.874;4.762;2023-04-05T18:52:04;9.70;99.60
19966;DHT22;10144;50.874;4.762;2023-04-05T18:54:30;9.50;99.90
19966;DHT22;10144;50.874;4.762;2023-04-05T18:56:57;9.30;99.90
19966;DHT22;10144;50.874;4.762;2023-04-05T18:59:22;9.40;99.90
19966;DHT22;10144;50.874;4.762;2023-04-05T19:01:56;9.30;99.90
19966;DHT22;10144;50.874;4.762;2023-04-05T19:04:26;9.40;99.90
19966;DHT22;10144;50.874;4.762;2023-04-05T19:06:56;9.40;99.90
19966;DHT22;10144;50.874;4.762;2023-04-05T19:09:22;9.30;99.90
19966;DHT22;10144;50.874;4.762;2023-04-05T19:11:48;9.30;99.90
19966;DHT22;10144;50.874;4.762;2023-04-05T19:14:26;9.20;99.90
19966;DHT22;10144;50.874;4.762;2023-04-05T19:16:55;9.20;99.90
19966;DHT22;10144;50.874;4.762;2023-04-05T19:19:21;9.20;99.90
19966;DHT22;10144;50.874;4.762;2023-04-05T19:21:46;9.20;99.90
19966;DHT22;10144;50.874;4.762;2023-04-05T19:24:12;9.10;99.90
19966;DHT22;10144;50.874;4.762;2023-04-05T19:26:41;9.10;99.90
19966;DHT22;10144;50.874;4.762;2023-04-05T19:29:17;9.00;99.90
19966;DHT22;10144;50.874;4.762;2023-04-05T19:31:46;9.00;99.90
19966;DHT22;10144;50.874;4.762;2023-04-05T19:34:15;9.00;99.90
19966;DHT22;10144;50.874;4.762;2023-04-05T19:36:43;9.00;99.90
19966;DHT22;10144;50.874;4.762;2023-04-05T19:39:10;9.00;99.90
19966;DHT22;10144;50.874;4.762;2023-04-05T19:41:42;9.10;99.90
19966;DHT22;10144;50.874;4.762;2023-04-05T19:44:11;9.00;99.90
19966;DHT22;10144;50.874;4.762;2023-04-05T19:46:40;8.90;99.90
19966;DHT22;10144;50.874;4.762;2023-04-05T19:49:09;9.00;99.90
19966;DHT22;10144;50.874;4.762;2023-04-05T19:51:36;9.00;99.90
19966;DHT22;10144;50.874;4.762;2023-04-05T19:54:09;8.90;99.90
19966;DHT22;10144;50.874;4.762;2023-04-05T19:56:42;8.70;99.90
19966;DHT22;10144;50.874;4.762;2023-04-05T20:01:40;8.80;99.90
19966;DHT22;10144;50.874;4.762;2023-04-05T20:04:17;8.70;99.90
19966;DHT22;10144;50.874;4.762;2023-04-05T20:06:45;8.70;99.90
19966;DHT22;10144;50.874;4.762;2023-04-05T20:09:30;8.70;99.90
19966;DHT22;10144;50.874;4.762;2023-04-05T20:12:02;8.70;99.90
19966;DHT22;10144;50.874;4.762;2023-04-05T20:14:41;8.70;99.90
19966;DHT22;10144;50.874;4.762;2023-04-05T20:17:09;8.80;99.90
19966;DHT22;10144;50.874;4.762;2023-04-05T20:19:38;8.70;99.90
19966;DHT22;10144;50.874;4.762;2023-04-05T20:22:09;8.70;99.90
19966;DHT22;10144;50.874;4.762;2023-04-05T20:27:39;8.60;99.90
19966;DHT22;10144;50.874;4.762;2023-04-05T20:30:30;8.70;99.90
19966;DHT22;10144;50.874;4.762;2023-04-05T20:33:04;8.70;99.90
19966;DHT22;10144;50.874;4.762;2023-04-05T20:35:32;8.60;99.90
19966;DHT22;10144;50.874;4.762;2023-04-05T20:38:16;8.60;99.90
19966;DHT22;10144;50.874;4.762;2023-04-05T20:40:44;8.50;99.90
19966;DHT22;10144;50.874;4.762;2023-04-05T20:47:15;8.30;99.90
19966;DHT22;10144;50.874;4.762;2023-04-05T20:49:49;8.40;99.90
19966;DHT22;10144;50.874;4.762;2023-04-05T20:52:17;8.30;99.90
19966;DHT22;10144;50.874;4.762;2023-04-05T20:54:55;8.30;99.90
19966;DHT22;10144;50.874;4.762;2023-04-05T20:57:49;8.30;99.90
19966;DHT22;10144;50.874;4.762;2023-04-05T21:00:29;8.30;99.90
19966;DHT22;10144;50.874;4.762;2023-04-05T21:03:00;8.30;99.90
19966;DHT22;10144;50.874;4.762;2023-04-05T21:05:45;8.10;99.90
19966;DHT22;10144;50.874;4.762;2023-04-05T21:08:37;8.10;99.90
19966;DHT22;10144;50.874;4.762;2023-04-05T21:11:04;8.20;99.90
19966;DHT22;10144;50.874;4.762;2023-04-05T21:13:33;8.20;99.90
19966;DHT22;10144;50.874;4.762;2023-04-05T21:16:09;8.10;99.90
19966;DHT22;10144;50.874;4.762;2023-04-05T21:22:04;8.10;99.90
19966;DHT22;10144;50.874;4.762;2023-04-05T21:27:52;7.80;99.90
19966;DHT22;10144;50.874;4.762;2023-04-05T21:30:44;7.70;99.90
19966;DHT22;10144;50.874;4.762;2023-04-05T21:36:25;7.40;99.90
19966;DHT22;10144;50.874;4.762;2023-04-05T21:45:56;7.60;99.90
19966;DHT22;10144;50.874;4.762;2023-04-05T21:48:24;7.70;99.90
19966;DHT22;10144;50.874;4.762;2023-04-05T21:50:55;7.60;99.90
19966;DHT22;10144;50.874;4.762;2023-04-05T21:56:57;7.50;99.90
19966;DHT22;10144;50.874;4.762;2023-04-05T21:59:33;7.40;99.90